Aeroporto :
LOGIN :

Iscrizione | Disclaimer

   EN    FR    IT 

 










Sommario :    VFR   VFR Marginale   IFR   IFR Intensivo   IFR Molto Intensivo
Visibilità : 
Base nubi : 
>= 8 km
>= 3000ft
5 / 8 km
1000 / 3000 ft
1500m / 5 km
500 / 1000 ft
800 / 1500m
200 / 500 ft
< 800m
< 200 ft
Simboli :   Temporali  Nebbia  Neve Forte  Precipitazioni Forti  Vento > 20 kt
SIGMETs :   Varie  Temporali  Ghiacco  Turbolenza  Onda orograficha  Ceneri Vulcaniche







- Altitudine del aeroporto : 39 ft
- Codice IATA : ANR


EBAW - Anvers / Antwerpen Deurne

ULTIMO METAR :
  • 172220Z AUTO 22006KT CAVOK 17/16 Q1008

METARs OBSOLETI :
  • 172150Z AUTO 22005KT CAVOK 17/16 Q1007
  • 172120Z AUTO 21006KT 180V240 CAVOK 17/16 Q1007
  • 172050Z 22006KT 190V250 CAVOK 17/16 Q1007 NOSIG
  • 172020Z 21005KT 180V250 CAVOK 18/16 Q1007 NOSIG

TAF TAF EBAW
Valido dal 17 a 21 ore il 18 a 06 ore UTC


172000Z 1721/1806 21006KT 9999 FEW020 SCT045
BECMG 1802/1804 SCT008 BKN012
TEMPO 1803/1806 3500 RA SCT003 BKN006
PROB30
TEMPO 1805/1806 1800 +RA BKN004
Nessun NOTAM noto per questo aeroporto.



MetMap, La meteo Aeronautica in un colpo d'occhio ! - Copyright ORBIFLY Dicembre 2007 - Disclaimer

ORBIFLY MET'MAP TEAM :

Programmazione e sviluppo : Alexandra Zaïnal
Concezione e sviluppo : Baudouin d'Aumeries
Co-Programmazione e sviluppo : Marc-Olivier Méhu
Supporto tecnico e logistico : Manuel Goepfert
Aiuto per la traduzione : Arnaldo La Scala

Contatto : metmap@orbifly.com




FONTI E CREDITI :

   NOAA